sensor_id;sensor_type;location;lat;lon;timestamp;temperature;humidity
53876;DHT22;39789;53.216;5.624;2022-08-19T00:01:19;15.50;99.90
53876;DHT22;39789;53.216;5.624;2022-08-19T00:03:45;15.50;99.90
53876;DHT22;39789;53.216;5.624;2022-08-19T00:06:10;15.40;99.90
53876;DHT22;39789;53.216;5.624;2022-08-19T00:08:36;15.40;99.90
53876;DHT22;39789;53.216;5.624;2022-08-19T00:11:02;15.40;99.90
53876;DHT22;39789;53.216;5.624;2022-08-19T00:13:27;15.30;99.90
53876;DHT22;39789;53.216;5.624;2022-08-19T00:15:55;15.30;99.90
53876;DHT22;39789;53.216;5.624;2022-08-19T00:18:21;15.30;99.90
53876;DHT22;39789;53.216;5.624;2022-08-19T00:20:46;15.30;99.90
53876;DHT22;39789;53.216;5.624;2022-08-19T00:23:12;15.30;99.90
53876;DHT22;39789;53.216;5.624;2022-08-19T00:25:37;15.30;99.90
53876;DHT22;39789;53.216;5.624;2022-08-19T00:28:04;15.30;99.90
53876;DHT22;39789;53.216;5.624;2022-08-19T00:30:30;15.40;99.90
53876;DHT22;39789;53.216;5.624;2022-08-19T00:32:56;15.40;99.90
53876;DHT22;39789;53.216;5.624;2022-08-19T00:35:22;15.40;99.90
53876;DHT22;39789;53.216;5.624;2022-08-19T00:37:49;15.40;99.90
53876;DHT22;39789;53.216;5.624;2022-08-19T00:40:16;15.50;99.90
53876;DHT22;39789;53.216;5.624;2022-08-19T00:42:42;15.50;99.90
53876;DHT22;39789;53.216;5.624;2022-08-19T00:45:15;15.50;99.90
53876;DHT22;39789;53.216;5.624;2022-08-19T00:47:43;15.50;99.90
53876;DHT22;39789;53.216;5.624;2022-08-19T00:50:10;15.50;99.90
53876;DHT22;39789;53.216;5.624;2022-08-19T00:52:43;15.50;99.90
53876;DHT22;39789;53.216;5.624;2022-08-19T00:55:13;15.50;99.90
53876;DHT22;39789;53.216;5.624;2022-08-19T00:57:43;15.50;99.90
53876;DHT22;39789;53.216;5.624;2022-08-19T01:00:13;15.40;99.90
53876;DHT22;39789;53.216;5.624;2022-08-19T01:02:40;15.40;99.90
53876;DHT22;39789;53.216;5.624;2022-08-19T01:05:09;15.40;99.90
53876;DHT22;39789;53.216;5.624;2022-08-19T01:07:37;15.40;99.90
53876;DHT22;39789;53.216;5.624;2022-08-19T01:10:10;15.30;99.90
53876;DHT22;39789;53.216;5.624;2022-08-19T01:12:38;15.30;99.90
53876;DHT22;39789;53.216;5.624;2022-08-19T01:15:05;15.30;99.90
53876;DHT22;39789;53.216;5.624;2022-08-19T01:17:33;15.30;99.90
53876;DHT22;39789;53.216;5.624;2022-08-19T01:19:59;15.30;99.90
53876;DHT22;39789;53.216;5.624;2022-08-19T01:22:41;15.30;99.90
53876;DHT22;39789;53.216;5.624;2022-08-19T01:25:08;15.30;99.90
53876;DHT22;39789;53.216;5.624;2022-08-19T01:27:44;15.30;99.90
53876;DHT22;39789;53.216;5.624;2022-08-19T01:30:15;15.30;99.90
53876;DHT22;39789;53.216;5.624;2022-08-19T01:32:41;15.30;99.90
53876;DHT22;39789;53.216;5.624;2022-08-19T01:35:09;15.70;99.90
53876;DHT22;39789;53.216;5.624;2022-08-19T01:40:09;15.30;99.90
53876;DHT22;39789;53.216;5.624;2022-08-19T01:42:35;15.30;99.90
53876;DHT22;39789;53.216;5.624;2022-08-19T01:45:01;15.30;99.90
53876;DHT22;39789;53.216;5.624;2022-08-19T01:47:26;15.30;99.90
53876;DHT22;39789;53.216;5.624;2022-08-19T01:49:52;15.30;99.90
53876;DHT22;39789;53.216;5.624;2022-08-19T01:52:18;15.40;99.90
53876;DHT22;39789;53.216;5.624;2022-08-19T01:54:43;15.30;99.90
53876;DHT22;39789;53.216;5.624;2022-08-19T01:57:12;15.60;99.90
53876;DHT22;39789;53.216;5.624;2022-08-19T01:59:39;15.40;99.90
53876;DHT22;39789;53.216;5.624;2022-08-19T02:02:06;15.40;99.90
53876;DHT22;39789;53.216;5.624;2022-08-19T02:04:35;15.40;99.90
53876;DHT22;39789;53.216;5.624;2022-08-19T02:07:03;15.40;99.90
53876;DHT22;39789;53.216;5.624;2022-08-19T02:09:31;15.30;99.90
53876;DHT22;39789;53.216;5.624;2022-08-19T02:11:57;15.30;99.90
53876;DHT22;39789;53.216;5.624;2022-08-19T02:14:23;15.20;99.90
53876;DHT22;39789;53.216;5.624;2022-08-19T02:16:48;15.20;99.90
53876;DHT22;39789;53.216;5.624;2022-08-19T02:19:14;15.20;99.90
53876;DHT22;39789;53.216;5.624;2022-08-19T02:21:40;15.10;99.90
53876;DHT22;39789;53.216;5.624;2022-08-19T02:24:05;15.30;99.90
53876;DHT22;39789;53.216;5.624;2022-08-19T02:26:32;15.20;99.90
53876;DHT22;39789;53.216;5.624;2022-08-19T02:28:58;15.20;99.90
53876;DHT22;39789;53.216;5.624;2022-08-19T02:31:25;15.20;99.90
53876;DHT22;39789;53.216;5.624;2022-08-19T02:33:52;15.20;99.90
53876;DHT22;39789;53.216;5.624;2022-08-19T02:36:18;15.20;99.90
53876;DHT22;39789;53.216;5.624;2022-08-19T02:38:44;15.20;99.90
53876;DHT22;39789;53.216;5.624;2022-08-19T02:41:20;15.20;99.90
53876;DHT22;39789;53.216;5.624;2022-08-19T02:43:46;15.20;99.90
53876;DHT22;39789;53.216;5.624;2022-08-19T02:46:23;15.20;99.90
53876;DHT22;39789;53.216;5.624;2022-08-19T02:48:51;15.20;99.90
53876;DHT22;39789;53.216;5.624;2022-08-19T02:51:29;15.20;99.90
53876;DHT22;39789;53.216;5.624;2022-08-19T02:53:55;15.50;99.90
53876;DHT22;39789;53.216;5.624;2022-08-19T02:56:21;15.20;99.90
53876;DHT22;39789;53.216;5.624;2022-08-19T02:58:48;15.20;99.90
53876;DHT22;39789;53.216;5.624;2022-08-19T03:01:29;15.20;99.90
53876;DHT22;39789;53.216;5.624;2022-08-19T03:04:00;15.20;99.90
53876;DHT22;39789;53.216;5.624;2022-08-19T03:06:26;15.10;99.90
53876;DHT22;39789;53.216;5.624;2022-08-19T03:08:53;15.10;99.90
53876;DHT22;39789;53.216;5.624;2022-08-19T03:11:25;15.00;99.90
53876;DHT22;39789;53.216;5.624;2022-08-19T03:13:51;15.00;99.90
53876;DHT22;39789;53.216;5.624;2022-08-19T03:16:20;15.00;99.90
53876;DHT22;39789;53.216;5.624;2022-08-19T03:18:46;15.00;99.90
53876;DHT22;39789;53.216;5.624;2022-08-19T03:21:23;15.00;99.90
53876;DHT22;39789;53.216;5.624;2022-08-19T03:23:49;15.00;99.90
53876;DHT22;39789;53.216;5.624;2022-08-19T03:26:15;15.00;99.90
53876;DHT22;39789;53.216;5.624;2022-08-19T03:28:41;15.10;99.90
53876;DHT22;39789;53.216;5.624;2022-08-19T03:31:11;15.00;99.90
53876;DHT22;39789;53.216;5.624;2022-08-19T03:33:37;15.00;99.90
53876;DHT22;39789;53.216;5.624;2022-08-19T03:36:10;15.00;99.90
53876;DHT22;39789;53.216;5.624;2022-08-19T03:38:38;14.90;99.90
53876;DHT22;39789;53.216;5.624;2022-08-19T03:41:07;15.00;99.90
53876;DHT22;39789;53.216;5.624;2022-08-19T03:43:37;15.00;99.90
53876;DHT22;39789;53.216;5.624;2022-08-19T03:46:07;15.00;99.90
53876;DHT22;39789;53.216;5.624;2022-08-19T03:48:34;15.00;99.90
53876;DHT22;39789;53.216;5.624;2022-08-19T03:51:01;15.00;99.90
53876;DHT22;39789;53.216;5.624;2022-08-19T03:53:28;15.00;99.90
53876;DHT22;39789;53.216;5.624;2022-08-19T03:55:55;15.00;99.90
53876;DHT22;39789;53.216;5.624;2022-08-19T03:58:21;15.00;99.90
53876;DHT22;39789;53.216;5.624;2022-08-19T04:00:47;15.00;99.90
53876;DHT22;39789;53.216;5.624;2022-08-19T04:03:14;15.00;99.90
53876;DHT22;39789;53.216;5.624;2022-08-19T04:05:39;15.00;99.90
53876;DHT22;39789;53.216;5.624;2022-08-19T04:08:05;15.00;99.90
53876;DHT22;39789;53.216;5.624;2022-08-19T04:10:37;15.00;99.90
53876;DHT22;39789;53.216;5.624;2022-08-19T04:13:04;15.10;99.90
53876;DHT22;39789;53.216;5.624;2022-08-19T04:15:31;15.10;99.90
53876;DHT22;39789;53.216;5.624;2022-08-19T04:18:01;15.00;99.90
53876;DHT22;39789;53.216;5.624;2022-08-19T04:20:27;15.00;99.90
53876;DHT22;39789;53.216;5.624;2022-08-19T04:22:53;15.00;99.90
53876;DHT22;39789;53.216;5.624;2022-08-19T04:25:18;15.00;99.90
53876;DHT22;39789;53.216;5.624;2022-08-19T04:27:44;15.00;99.90
53876;DHT22;39789;53.216;5.624;2022-08-19T04:30:13;15.10;99.90
53876;DHT22;39789;53.216;5.624;2022-08-19T04:32:38;15.00;99.90
53876;DHT22;39789;53.216;5.624;2022-08-19T04:35:04;15.00;99.90
53876;DHT22;39789;53.216;5.624;2022-08-19T04:37:30;15.10;99.90
53876;DHT22;39789;53.216;5.624;2022-08-19T04:39:58;15.10;99.90
53876;DHT22;39789;53.216;5.624;2022-08-19T04:42:43;15.10;99.90
53876;DHT22;39789;53.216;5.624;2022-08-19T04:45:11;15.10;99.90
53876;DHT22;39789;53.216;5.624;2022-08-19T04:47:40;15.10;99.90
53876;DHT22;39789;53.216;5.624;2022-08-19T04:50:06;15.20;99.90
53876;DHT22;39789;53.216;5.624;2022-08-19T04:52:33;15.10;99.90
53876;DHT22;39789;53.216;5.624;2022-08-19T04:54:59;15.10;99.90
53876;DHT22;39789;53.216;5.624;2022-08-19T04:57:25;15.20;99.90
53876;DHT22;39789;53.216;5.624;2022-08-19T04:59:56;15.30;99.90
53876;DHT22;39789;53.216;5.624;2022-08-19T05:02:22;15.40;99.90
53876;DHT22;39789;53.216;5.624;2022-08-19T05:04:56;15.50;99.90
53876;DHT22;39789;53.216;5.624;2022-08-19T05:07:22;15.70;99.90
53876;DHT22;39789;53.216;5.624;2022-08-19T05:09:48;15.90;99.90
53876;DHT22;39789;53.216;5.624;2022-08-19T05:12:13;15.90;99.90
53876;DHT22;39789;53.216;5.624;2022-08-19T05:14:39;16.00;99.90
53876;DHT22;39789;53.216;5.624;2022-08-19T05:17:04;16.00;99.90
53876;DHT22;39789;53.216;5.624;2022-08-19T05:19:30;16.10;99.90
53876;DHT22;39789;53.216;5.624;2022-08-19T05:22:14;16.20;99.90
53876;DHT22;39789;53.216;5.624;2022-08-19T05:24:58;16.30;99.90
53876;DHT22;39789;53.216;5.624;2022-08-19T05:27:24;16.40;99.90
53876;DHT22;39789;53.216;5.624;2022-08-19T05:29:50;16.60;99.90
53876;DHT22;39789;53.216;5.624;2022-08-19T05:32:15;16.60;99.90
53876;DHT22;39789;53.216;5.624;2022-08-19T05:34:41;16.70;99.90
53876;DHT22;39789;53.216;5.624;2022-08-19T05:37:07;16.80;99.90
53876;DHT22;39789;53.216;5.624;2022-08-19T05:39:35;16.80;99.90
53876;DHT22;39789;53.216;5.624;2022-08-19T05:42:07;16.70;99.90
53876;DHT22;39789;53.216;5.624;2022-08-19T05:44:37;16.70;99.90
53876;DHT22;39789;53.216;5.624;2022-08-19T05:47:06;17.00;99.90
53876;DHT22;39789;53.216;5.624;2022-08-19T05:49:33;16.80;99.90
53876;DHT22;39789;53.216;5.624;2022-08-19T05:52:00;16.80;99.90
53876;DHT22;39789;53.216;5.624;2022-08-19T05:54:26;16.90;99.90
53876;DHT22;39789;53.216;5.624;2022-08-19T05:56:53;17.00;99.90
53876;DHT22;39789;53.216;5.624;2022-08-19T05:59:20;17.00;99.90
53876;DHT22;39789;53.216;5.624;2022-08-19T06:01:48;17.10;99.90
53876;DHT22;39789;53.216;5.624;2022-08-19T06:04:18;17.20;99.90
53876;DHT22;39789;53.216;5.624;2022-08-19T06:06:49;17.30;99.90
53876;DHT22;39789;53.216;5.624;2022-08-19T06:09:18;17.40;99.90
53876;DHT22;39789;53.216;5.624;2022-08-19T06:11:47;17.50;99.90
53876;DHT22;39789;53.216;5.624;2022-08-19T06:14:19;17.60;99.90
53876;DHT22;39789;53.216;5.624;2022-08-19T06:16:46;17.70;99.90
53876;DHT22;39789;53.216;5.624;2022-08-19T06:19:16;17.80;99.90
53876;DHT22;39789;53.216;5.624;2022-08-19T06:21:45;17.80;99.90
53876;DHT22;39789;53.216;5.624;2022-08-19T06:24:13;17.90;99.90
53876;DHT22;39789;53.216;5.624;2022-08-19T06:26:42;18.00;99.90
53876;DHT22;39789;53.216;5.624;2022-08-19T06:29:10;18.10;99.90
53876;DHT22;39789;53.216;5.624;2022-08-19T06:31:40;18.20;99.90
53876;DHT22;39789;53.216;5.624;2022-08-19T06:34:05;18.30;99.90
53876;DHT22;39789;53.216;5.624;2022-08-19T06:36:41;18.30;99.90
53876;DHT22;39789;53.216;5.624;2022-08-19T06:39:15;18.50;99.90
53876;DHT22;39789;53.216;5.624;2022-08-19T06:41:44;18.40;99.90
53876;DHT22;39789;53.216;5.624;2022-08-19T06:44:11;18.50;99.90
53876;DHT22;39789;53.216;5.624;2022-08-19T06:46:38;18.60;99.90
53876;DHT22;39789;53.216;5.624;2022-08-19T06:49:04;18.60;99.90
53876;DHT22;39789;53.216;5.624;2022-08-19T06:51:30;18.80;99.90
53876;DHT22;39789;53.216;5.624;2022-08-19T06:53:57;18.90;99.90
53876;DHT22;39789;53.216;5.624;2022-08-19T06:56:28;19.00;99.90
53876;DHT22;39789;53.216;5.624;2022-08-19T06:59:03;19.00;99.90
53876;DHT22;39789;53.216;5.624;2022-08-19T07:01:29;19.10;99.90
53876;DHT22;39789;53.216;5.624;2022-08-19T07:07:24;19.20;99.90
53876;DHT22;39789;53.216;5.624;2022-08-19T07:09:50;19.30;99.90
53876;DHT22;39789;53.216;5.624;2022-08-19T07:12:21;19.40;99.90
53876;DHT22;39789;53.216;5.624;2022-08-19T07:14:47;19.50;99.90
53876;DHT22;39789;53.216;5.624;2022-08-19T07:17:13;19.60;99.90
53876;DHT22;39789;53.216;5.624;2022-08-19T07:19:40;19.60;99.90
53876;DHT22;39789;53.216;5.624;2022-08-19T07:22:20;19.70;99.90
53876;DHT22;39789;53.216;5.624;2022-08-19T07:24:49;19.80;99.90
53876;DHT22;39789;53.216;5.624;2022-08-19T07:27:18;19.90;99.90
53876;DHT22;39789;53.216;5.624;2022-08-19T07:29:44;20.00;99.90
53876;DHT22;39789;53.216;5.624;2022-08-19T07:32:14;20.20;99.90
53876;DHT22;39789;53.216;5.624;2022-08-19T07:34:39;20.20;99.90
53876;DHT22;39789;53.216;5.624;2022-08-19T07:37:14;20.30;99.90
53876;DHT22;39789;53.216;5.624;2022-08-19T07:39:40;20.30;99.90
53876;DHT22;39789;53.216;5.624;2022-08-19T07:42:09;20.50;99.90
53876;DHT22;39789;53.216;5.624;2022-08-19T07:44:37;20.60;99.90
53876;DHT22;39789;53.216;5.624;2022-08-19T07:47:04;20.80;99.90
53876;DHT22;39789;53.216;5.624;2022-08-19T07:49:30;21.10;99.90
53876;DHT22;39789;53.216;5.624;2022-08-19T07:52:00;21.70;99.90
53876;DHT22;39789;53.216;5.624;2022-08-19T07:58:10;23.10;99.90
53876;DHT22;39789;53.216;5.624;2022-08-19T08:00:51;23.90;99.90
53876;DHT22;39789;53.216;5.624;2022-08-19T08:03:19;24.10;99.90
53876;DHT22;39789;53.216;5.624;2022-08-19T08:05:45;25.50;99.90
53876;DHT22;39789;53.216;5.624;2022-08-19T08:08:31;24.90;99.90
53876;DHT22;39789;53.216;5.624;2022-08-19T08:11:18;25.40;99.90
53876;DHT22;39789;53.216;5.624;2022-08-19T08:13:45;25.50;99.90
53876;DHT22;39789;53.216;5.624;2022-08-19T08:16:14;25.70;99.90
53876;DHT22;39789;53.216;5.624;2022-08-19T08:18:39;25.90;99.90
53876;DHT22;39789;53.216;5.624;2022-08-19T08:21:07;25.80;99.90
53876;DHT22;39789;53.216;5.624;2022-08-19T08:23:34;25.50;99.90
53876;DHT22;39789;53.216;5.624;2022-08-19T08:26:00;26.30;99.90
53876;DHT22;39789;53.216;5.624;2022-08-19T08:28:27;26.00;99.90
53876;DHT22;39789;53.216;5.624;2022-08-19T08:30:57;25.60;99.90
53876;DHT22;39789;53.216;5.624;2022-08-19T08:33:25;24.40;99.90
53876;DHT22;39789;53.216;5.624;2022-08-19T08:35:51;25.00;99.90
53876;DHT22;39789;53.216;5.624;2022-08-19T08:38:32;24.20;99.90
53876;DHT22;39789;53.216;5.624;2022-08-19T08:41:03;24.00;99.90
53876;DHT22;39789;53.216;5.624;2022-08-19T08:43:37;23.40;99.90
53876;DHT22;39789;53.216;5.624;2022-08-19T08:46:06;23.70;99.90
53876;DHT22;39789;53.216;5.624;2022-08-19T08:49:07;23.80;99.90
53876;DHT22;39789;53.216;5.624;2022-08-19T08:51:51;23.90;99.90
53876;DHT22;39789;53.216;5.624;2022-08-19T08:54:22;23.90;99.90
53876;DHT22;39789;53.216;5.624;2022-08-19T08:56:51;23.90;99.90
53876;DHT22;39789;53.216;5.624;2022-08-19T08:59:34;24.20;99.90
53876;DHT22;39789;53.216;5.624;2022-08-19T09:02:01;24.30;99.90
53876;DHT22;39789;53.216;5.624;2022-08-19T09:04:27;24.50;99.90
53876;DHT22;39789;53.216;5.624;2022-08-19T09:09:34;24.50;99.90
53876;DHT22;39789;53.216;5.624;2022-08-19T09:14:55;24.60;99.90
53876;DHT22;39789;53.216;5.624;2022-08-19T09:17:26;24.40;99.90
53876;DHT22;39789;53.216;5.624;2022-08-19T09:20:18;24.40;99.90
53876;DHT22;39789;53.216;5.624;2022-08-19T09:22:45;24.20;99.90
53876;DHT22;39789;53.216;5.624;2022-08-19T09:25:15;23.40;99.90
53876;DHT22;39789;53.216;5.624;2022-08-19T09:27:42;24.20;99.90
53876;DHT22;39789;53.216;5.624;2022-08-19T09:30:32;24.10;99.90
53876;DHT22;39789;53.216;5.624;2022-08-19T09:32:57;24.10;99.90
53876;DHT22;39789;53.216;5.624;2022-08-19T09:35:27;24.10;99.90
53876;DHT22;39789;53.216;5.624;2022-08-19T09:37:55;24.20;99.90
53876;DHT22;39789;53.216;5.624;2022-08-19T09:40:23;24.00;99.90
53876;DHT22;39789;53.216;5.624;2022-08-19T09:42:49;24.20;99.90
53876;DHT22;39789;53.216;5.624;2022-08-19T09:45:16;25.10;99.90
53876;DHT22;39789;53.216;5.624;2022-08-19T09:47:43;25.10;99.90
53876;DHT22;39789;53.216;5.624;2022-08-19T09:50:11;24.00;99.90
53876;DHT22;39789;53.216;5.624;2022-08-19T09:52:38;24.80;99.90
53876;DHT22;39789;53.216;5.624;2022-08-19T09:55:07;24.60;99.90
53876;DHT22;39789;53.216;5.624;2022-08-19T09:57:33;25.70;99.90
53876;DHT22;39789;53.216;5.624;2022-08-19T10:00:02;24.60;99.90
53876;DHT22;39789;53.216;5.624;2022-08-19T10:02:29;25.30;99.90
53876;DHT22;39789;53.216;5.624;2022-08-19T10:04:56;24.90;99.90
53876;DHT22;39789;53.216;5.624;2022-08-19T10:07:41;25.40;99.90
53876;DHT22;39789;53.216;5.624;2022-08-19T10:10:07;25.50;99.90
53876;DHT22;39789;53.216;5.624;2022-08-19T10:12:35;25.60;99.90
53876;DHT22;39789;53.216;5.624;2022-08-19T10:15:03;25.70;99.90
53876;DHT22;39789;53.216;5.624;2022-08-19T10:17:29;25.70;99.90
53876;DHT22;39789;53.216;5.624;2022-08-19T10:19:55;25.60;99.90
53876;DHT22;39789;53.216;5.624;2022-08-19T10:22:22;26.00;99.90
53876;DHT22;39789;53.216;5.624;2022-08-19T10:24:48;25.60;99.90
53876;DHT22;39789;53.216;5.624;2022-08-19T10:27:15;25.50;99.90
53876;DHT22;39789;53.216;5.624;2022-08-19T10:29:41;25.50;99.90
53876;DHT22;39789;53.216;5.624;2022-08-19T10:32:08;25.40;99.90
53876;DHT22;39789;53.216;5.624;2022-08-19T10:34:36;25.50;99.90
53876;DHT22;39789;53.216;5.624;2022-08-19T10:37:04;25.80;99.90
53876;DHT22;39789;53.216;5.624;2022-08-19T10:39:35;26.10;99.90
53876;DHT22;39789;53.216;5.624;2022-08-19T10:42:07;25.50;99.90
53876;DHT22;39789;53.216;5.624;2022-08-19T10:44:57;25.50;99.90
53876;DHT22;39789;53.216;5.624;2022-08-19T10:47:24;25.50;99.90
53876;DHT22;39789;53.216;5.624;2022-08-19T10:49:50;25.90;99.90
53876;DHT22;39789;53.216;5.624;2022-08-19T10:52:35;25.90;99.90
53876;DHT22;39789;53.216;5.624;2022-08-19T10:55:05;25.70;99.90
53876;DHT22;39789;53.216;5.624;2022-08-19T10:57:50;25.80;99.90
53876;DHT22;39789;53.216;5.624;2022-08-19T11:00:21;25.90;99.90
53876;DHT22;39789;53.216;5.624;2022-08-19T11:02:48;25.90;99.90
53876;DHT22;39789;53.216;5.624;2022-08-19T11:05:13;25.90;99.90
53876;DHT22;39789;53.216;5.624;2022-08-19T11:07:41;25.60;99.90
53876;DHT22;39789;53.216;5.624;2022-08-19T11:10:08;25.20;99.90
53876;DHT22;39789;53.216;5.624;2022-08-19T11:12:38;25.30;99.90
53876;DHT22;39789;53.216;5.624;2022-08-19T11:15:07;24.60;99.90
53876;DHT22;39789;53.216;5.624;2022-08-19T11:17:34;25.10;99.90
53876;DHT22;39789;53.216;5.624;2022-08-19T11:20:02;24.90;99.90
53876;DHT22;39789;53.216;5.624;2022-08-19T11:22:30;24.70;99.90
53876;DHT22;39789;53.216;5.624;2022-08-19T11:24:55;24.40;99.90
53876;DHT22;39789;53.216;5.624;2022-08-19T11:27:21;25.30;99.90
53876;DHT22;39789;53.216;5.624;2022-08-19T11:29:47;24.40;99.90
53876;DHT22;39789;53.216;5.624;2022-08-19T11:32:12;24.40;99.90
53876;DHT22;39789;53.216;5.624;2022-08-19T11:34:39;24.40;99.90
53876;DHT22;39789;53.216;5.624;2022-08-19T11:37:05;24.40;99.90
53876;DHT22;39789;53.216;5.624;2022-08-19T11:39:32;24.50;99.90
53876;DHT22;39789;53.216;5.624;2022-08-19T11:41:59;25.90;99.90
53876;DHT22;39789;53.216;5.624;2022-08-19T11:44:26;24.80;99.90
53876;DHT22;39789;53.216;5.624;2022-08-19T11:46:53;23.90;99.90
53876;DHT22;39789;53.216;5.624;2022-08-19T11:49:19;24.60;99.90
53876;DHT22;39789;53.216;5.624;2022-08-19T11:51:47;24.10;99.90
53876;DHT22;39789;53.216;5.624;2022-08-19T11:54:14;24.10;99.90
53876;DHT22;39789;53.216;5.624;2022-08-19T11:56:55;24.80;99.90
53876;DHT22;39789;53.216;5.624;2022-08-19T11:59:22;24.30;99.90
53876;DHT22;39789;53.216;5.624;2022-08-19T12:01:49;24.50;99.90
53876;DHT22;39789;53.216;5.624;2022-08-19T12:04:14;24.60;99.90
53876;DHT22;39789;53.216;5.624;2022-08-19T12:06:40;24.70;99.90
53876;DHT22;39789;53.216;5.624;2022-08-19T12:09:07;25.20;99.90
53876;DHT22;39789;53.216;5.624;2022-08-19T12:11:36;24.70;99.90
53876;DHT22;39789;53.216;5.624;2022-08-19T12:14:03;24.50;99.90
53876;DHT22;39789;53.216;5.624;2022-08-19T12:16:29;24.80;99.90
53876;DHT22;39789;53.216;5.624;2022-08-19T12:18:56;24.80;99.90
53876;DHT22;39789;53.216;5.624;2022-08-19T12:21:25;24.80;99.90
53876;DHT22;39789;53.216;5.624;2022-08-19T12:23:55;26.30;99.90
53876;DHT22;39789;53.216;5.624;2022-08-19T12:26:21;24.90;99.90
53876;DHT22;39789;53.216;5.624;2022-08-19T12:28:47;24.80;99.90
53876;DHT22;39789;53.216;5.624;2022-08-19T12:31:14;25.20;99.90
53876;DHT22;39789;53.216;5.624;2022-08-19T12:33:41;24.60;99.90
53876;DHT22;39789;53.216;5.624;2022-08-19T12:36:09;25.10;99.90
53876;DHT22;39789;53.216;5.624;2022-08-19T12:38:37;24.80;99.90
53876;DHT22;39789;53.216;5.624;2022-08-19T12:41:04;24.20;99.90
53876;DHT22;39789;53.216;5.624;2022-08-19T12:43:36;24.70;99.90
53876;DHT22;39789;53.216;5.624;2022-08-19T12:46:06;24.60;99.90
53876;DHT22;39789;53.216;5.624;2022-08-19T12:48:37;24.70;99.90
53876;DHT22;39789;53.216;5.624;2022-08-19T12:51:07;24.70;99.90
53876;DHT22;39789;53.216;5.624;2022-08-19T12:53:34;24.80;99.90
53876;DHT22;39789;53.216;5.624;2022-08-19T12:56:00;25.00;99.90
53876;DHT22;39789;53.216;5.624;2022-08-19T12:58:27;24.60;99.90
53876;DHT22;39789;53.216;5.624;2022-08-19T13:00:53;24.50;99.90
53876;DHT22;39789;53.216;5.624;2022-08-19T13:03:19;24.50;99.90
53876;DHT22;39789;53.216;5.624;2022-08-19T13:05:44;24.90;99.90
53876;DHT22;39789;53.216;5.624;2022-08-19T13:08:10;24.60;99.90
53876;DHT22;39789;53.216;5.624;2022-08-19T13:10:37;24.70;99.90
53876;DHT22;39789;53.216;5.624;2022-08-19T13:13:07;24.80;99.90
53876;DHT22;39789;53.216;5.624;2022-08-19T13:15:41;24.80;99.90
53876;DHT22;39789;53.216;5.624;2022-08-19T13:18:08;25.00;99.90
53876;DHT22;39789;53.216;5.624;2022-08-19T13:20:35;24.90;99.90
53876;DHT22;39789;53.216;5.624;2022-08-19T13:23:00;25.20;99.90
53876;DHT22;39789;53.216;5.624;2022-08-19T13:25:26;25.10;99.90
53876;DHT22;39789;53.216;5.624;2022-08-19T13:27:52;24.90;99.90
53876;DHT22;39789;53.216;5.624;2022-08-19T13:30:19;25.10;99.90
53876;DHT22;39789;53.216;5.624;2022-08-19T13:33:04;25.30;99.90
53876;DHT22;39789;53.216;5.624;2022-08-19T13:38:09;25.50;99.90
53876;DHT22;39789;53.216;5.624;2022-08-19T13:40:35;25.80;99.90
53876;DHT22;39789;53.216;5.624;2022-08-19T13:43:02;25.30;99.90
53876;DHT22;39789;53.216;5.624;2022-08-19T13:45:30;25.10;99.90
53876;DHT22;39789;53.216;5.624;2022-08-19T13:48:00;24.60;99.90
53876;DHT22;39789;53.216;5.624;2022-08-19T13:50:29;24.50;99.90
53876;DHT22;39789;53.216;5.624;2022-08-19T13:52:56;24.40;99.90
53876;DHT22;39789;53.216;5.624;2022-08-19T13:55:23;24.50;99.90
53876;DHT22;39789;53.216;5.624;2022-08-19T13:57:53;24.60;99.90
53876;DHT22;39789;53.216;5.624;2022-08-19T14:00:21;24.70;99.90
53876;DHT22;39789;53.216;5.624;2022-08-19T14:02:48;24.80;99.90
53876;DHT22;39789;53.216;5.624;2022-08-19T14:08:32;24.70;99.90
53876;DHT22;39789;53.216;5.624;2022-08-19T14:10:58;24.60;99.90
53876;DHT22;39789;53.216;5.624;2022-08-19T14:13:24;24.60;99.90
53876;DHT22;39789;53.216;5.624;2022-08-19T14:15:50;24.50;99.90
53876;DHT22;39789;53.216;5.624;2022-08-19T14:18:18;24.60;99.90
53876;DHT22;39789;53.216;5.624;2022-08-19T14:20:44;24.40;99.90
53876;DHT22;39789;53.216;5.624;2022-08-19T14:23:10;24.70;99.90
53876;DHT22;39789;53.216;5.624;2022-08-19T14:25:37;24.80;99.90
53876;DHT22;39789;53.216;5.624;2022-08-19T14:28:03;24.70;99.90
53876;DHT22;39789;53.216;5.624;2022-08-19T14:30:31;24.90;99.90
53876;DHT22;39789;53.216;5.624;2022-08-19T14:32:59;24.40;99.90
53876;DHT22;39789;53.216;5.624;2022-08-19T14:35:26;24.50;99.90
53876;DHT22;39789;53.216;5.624;2022-08-19T14:37:52;24.20;99.90
53876;DHT22;39789;53.216;5.624;2022-08-19T14:40:22;25.00;99.90
53876;DHT22;39789;53.216;5.624;2022-08-19T14:42:52;24.20;99.90
53876;DHT22;39789;53.216;5.624;2022-08-19T14:45:26;24.30;99.90
53876;DHT22;39789;53.216;5.624;2022-08-19T14:47:52;24.60;99.90
53876;DHT22;39789;53.216;5.624;2022-08-19T14:50:18;24.60;99.90
53876;DHT22;39789;53.216;5.624;2022-08-19T14:52:48;25.20;99.90
53876;DHT22;39789;53.216;5.624;2022-08-19T14:55:17;25.50;99.90
53876;DHT22;39789;53.216;5.624;2022-08-19T14:57:44;25.00;99.90
53876;DHT22;39789;53.216;5.624;2022-08-19T15:00:11;24.30;99.90
53876;DHT22;39789;53.216;5.624;2022-08-19T15:02:39;24.70;99.90
53876;DHT22;39789;53.216;5.624;2022-08-19T15:05:05;24.40;99.90
53876;DHT22;39789;53.216;5.624;2022-08-19T15:07:33;24.30;99.90
53876;DHT22;39789;53.216;5.624;2022-08-19T15:09:59;24.40;99.90
53876;DHT22;39789;53.216;5.624;2022-08-19T15:12:24;25.40;99.90
53876;DHT22;39789;53.216;5.624;2022-08-19T15:14:50;24.60;99.90
53876;DHT22;39789;53.216;5.624;2022-08-19T15:17:17;24.40;99.90
53876;DHT22;39789;53.216;5.624;2022-08-19T15:19:43;24.40;99.90
53876;DHT22;39789;53.216;5.624;2022-08-19T15:22:08;25.20;99.90
53876;DHT22;39789;53.216;5.624;2022-08-19T15:24:35;24.30;99.90
53876;DHT22;39789;53.216;5.624;2022-08-19T15:27:01;24.30;99.90
53876;DHT22;39789;53.216;5.624;2022-08-19T15:29:27;24.60;99.90
53876;DHT22;39789;53.216;5.624;2022-08-19T15:31:54;24.70;99.90
53876;DHT22;39789;53.216;5.624;2022-08-19T15:34:24;24.50;99.90
53876;DHT22;39789;53.216;5.624;2022-08-19T15:36:51;24.40;99.90
53876;DHT22;39789;53.216;5.624;2022-08-19T15:39:17;24.20;99.90
53876;DHT22;39789;53.216;5.624;2022-08-19T15:41:44;24.20;99.90
53876;DHT22;39789;53.216;5.624;2022-08-19T15:44:18;24.20;99.90
53876;DHT22;39789;53.216;5.624;2022-08-19T15:46:45;24.20;99.90
53876;DHT22;39789;53.216;5.624;2022-08-19T15:49:14;24.10;99.90
53876;DHT22;39789;53.216;5.624;2022-08-19T15:51:41;24.50;99.90
53876;DHT22;39789;53.216;5.624;2022-08-19T15:54:10;24.20;99.90
53876;DHT22;39789;53.216;5.624;2022-08-19T15:56:36;24.20;99.90
53876;DHT22;39789;53.216;5.624;2022-08-19T15:59:32;24.20;99.90